Time,TemperatureF,DewpointF,PressureIn,WindDirection,WindDirectionDegrees,WindSpeedMPH,WindSpeedGustMPH,Humidity,HourlyPrecipIn,Conditions,Clouds,dailyrainin,SoftwareType,DateUTC
2013-05-30 00:11:00,50.0,41.0,-100.00,SE,135,2.0,6.0,73,0.00,,,0.20,,2013-05-30 00:11:00,
2013-05-30 00:21:00,50.0,41.0,-100.00,SE,135,2.0,6.0,73,0.00,,,0.20,,2013-05-30 00:21:00,
2013-05-30 00:31:00,50.0,41.0,-100.00,SE,135,2.0,6.0,73,0.00,,,0.20,,2013-05-30 00:31:00,
2013-05-30 00:41:00,50.0,41.0,-100.00,SE,135,2.0,6.0,73,0.00,,,0.20,,2013-05-30 00:41:00,
2013-05-30 00:52:00,50.0,41.0,-100.00,SE,135,2.0,6.0,73,0.00,,,0.20,,2013-05-30 00:52:00,
2013-05-30 01:11:00,48.0,41.0,-100.00,SSE,161,5.0,8.0,78,0.00,,,-99.99,,2013-05-30 01:11:00,
2013-05-30 01:21:00,48.0,41.0,-100.00,SSE,161,5.0,8.0,78,0.00,,,-99.99,,2013-05-30 01:21:00,
2013-05-30 01:31:00,48.0,41.0,-100.00,SSE,161,5.0,8.0,78,0.00,,,-99.99,,2013-05-30 01:31:00,
2013-05-30 01:41:00,48.0,41.0,-100.00,SSE,161,5.0,8.0,78,0.00,,,-99.99,,2013-05-30 01:41:00,
2013-05-30 01:52:00,48.0,41.0,-100.00,SSE,161,5.0,8.0,78,0.00,,,-99.99,,2013-05-30 01:52:00,
2013-05-30 02:11:00,50.0,43.0,-100.00,South,171,5.0,7.0,77,0.00,,,0.20,,2013-05-30 02:11:00,
2013-05-30 02:21:00,50.0,43.0,-100.00,South,171,5.0,7.0,77,0.00,,,0.20,,2013-05-30 02:21:00,
2013-05-30 02:32:00,50.0,43.0,-100.00,South,171,5.0,7.0,77,0.00,,,0.20,,2013-05-30 02:32:00,
2013-05-30 02:42:00,50.0,43.0,-100.00,South,171,5.0,7.0,77,0.00,,,0.20,,2013-05-30 02:42:00,
2013-05-30 02:52:00,50.0,43.0,-100.00,South,171,5.0,7.0,77,0.00,,,0.20,,2013-05-30 02:52:00,
2013-05-30 03:11:00,44.0,40.0,-100.00,NE,43,2.0,6.0,85,0.00,,,0.19,,2013-05-30 03:11:00,
2013-05-30 03:21:00,44.0,40.0,-100.00,NE,43,2.0,6.0,85,0.00,,,0.19,,2013-05-30 03:21:00,
2013-05-30 03:33:00,44.0,40.0,-100.00,NE,43,2.0,6.0,85,0.00,,,0.19,,2013-05-30 03:33:00,
2013-05-30 03:43:00,44.0,40.0,-100.00,NE,43,2.0,6.0,85,0.00,,,0.19,,2013-05-30 03:43:00,
2013-05-30 03:53:00,44.0,40.0,-100.00,NE,43,2.0,6.0,85,0.00,,,0.19,,2013-05-30 03:53:00,
2013-05-30 04:12:00,42.0,41.0,-100.00,ENE,58,2.0,4.0,95,0.02,,,0.21,,2013-05-30 04:12:00,
2013-05-30 04:23:00,42.0,41.0,-100.00,ENE,58,2.0,4.0,95,0.02,,,0.21,,2013-05-30 04:23:00,
2013-05-30 04:32:00,42.0,41.0,-100.00,ENE,58,2.0,4.0,95,0.02,,,0.21,,2013-05-30 04:32:00,
2013-05-30 04:42:00,42.0,41.0,-100.00,ENE,58,2.0,4.0,95,0.02,,,0.21,,2013-05-30 04:42:00,
2013-05-30 04:52:00,42.0,41.0,-100.00,ENE,58,2.0,4.0,95,0.02,,,0.21,,2013-05-30 04:52:00,
2013-05-30 05:12:00,43.0,42.0,-100.00,SE,134,1.0,2.0,96,0.00,,,0.21,,2013-05-30 05:12:00,
2013-05-30 05:22:00,43.0,42.0,-100.00,SE,134,1.0,2.0,96,0.00,,,0.21,,2013-05-30 05:22:00,
2013-05-30 05:32:00,43.0,42.0,-100.00,SE,134,1.0,2.0,96,0.00,,,0.21,,2013-05-30 05:32:00,
2013-05-30 05:42:00,43.0,42.0,-100.00,SE,134,1.0,2.0,96,0.00,,,0.21,,2013-05-30 05:42:00,
2013-05-30 05:52:00,43.0,42.0,-100.00,SE,134,1.0,2.0,96,0.00,,,0.21,,2013-05-30 05:52:00,
2013-05-30 06:12:00,41.0,40.0,-100.00,WSW,238,5.0,12.0,93,0.11,,,0.32,,2013-05-30 06:12:00,
2013-05-30 06:21:00,41.0,40.0,-100.00,WSW,238,5.0,12.0,93,0.11,,,0.32,,2013-05-30 06:21:00,
2013-05-30 06:32:00,41.0,40.0,-100.00,WSW,238,5.0,12.0,93,0.11,,,0.32,,2013-05-30 06:32:00,
2013-05-30 06:41:00,41.0,40.0,-100.00,WSW,238,5.0,12.0,93,0.11,,,0.32,,2013-05-30 06:41:00,
2013-05-30 06:51:00,41.0,40.0,-100.00,WSW,238,5.0,12.0,93,0.11,,,0.32,,2013-05-30 06:51:00,
2013-05-30 07:12:00,40.0,39.0,-100.00,NW,320,5.0,9.0,96,0.06,,,0.38,,2013-05-30 07:12:00,
2013-05-30 07:21:00,40.0,39.0,-100.00,NW,320,5.0,9.0,96,0.06,,,0.38,,2013-05-30 07:21:00,
2013-05-30 07:31:00,40.0,39.0,-100.00,NW,320,5.0,9.0,96,0.06,,,0.38,,2013-05-30 07:31:00,
2013-05-30 07:42:00,40.0,39.0,-100.00,NW,320,5.0,9.0,96,0.06,,,0.38,,2013-05-30 07:42:00,
2013-05-30 07:52:00,40.0,39.0,-100.00,NW,320,5.0,9.0,96,0.06,,,0.38,,2013-05-30 07:52:00,
2013-05-30 08:11:00,39.0,39.0,-100.00,East,82,4.0,7.0,97,0.00,,,0.38,,2013-05-30 08:11:00,
2013-05-30 08:21:00,39.0,39.0,-100.00,East,82,4.0,7.0,97,0.00,,,0.38,,2013-05-30 08:21:00,
2013-05-30 08:31:00,39.0,39.0,-100.00,East,82,4.0,7.0,97,0.00,,,0.38,,2013-05-30 08:31:00,
2013-05-30 08:42:00,39.0,39.0,-100.00,East,82,4.0,7.0,97,0.00,,,0.38,,2013-05-30 08:42:00,
2013-05-30 08:52:00,39.0,39.0,-100.00,East,82,4.0,7.0,97,0.00,,,0.38,,2013-05-30 08:52:00,
2013-05-30 09:11:00,40.0,39.0,-100.00,SSE,160,2.0,5.0,97,0.00,,,0.38,,2013-05-30 09:11:00,
2013-05-30 09:21:00,40.0,39.0,-100.00,SSE,160,2.0,5.0,97,0.00,,,0.38,,2013-05-30 09:21:00,
2013-05-30 09:32:00,40.0,39.0,-100.00,SSE,160,2.0,5.0,97,0.00,,,0.38,,2013-05-30 09:32:00,
2013-05-30 09:42:00,40.0,39.0,-100.00,SSE,160,2.0,5.0,97,0.00,,,0.38,,2013-05-30 09:42:00,
2013-05-30 09:53:00,40.0,39.0,-100.00,SSE,160,2.0,5.0,97,0.00,,,0.38,,2013-05-30 09:53:00,
2013-05-30 10:12:00,39.0,38.0,-100.00,SSW,206,2.0,4.0,97,0.00,,,0.38,,2013-05-30 10:12:00,
2013-05-30 10:22:00,39.0,38.0,-100.00,SSW,206,2.0,4.0,97,0.00,,,0.38,,2013-05-30 10:22:00,
2013-05-30 10:32:00,39.0,38.0,-100.00,SSW,206,2.0,4.0,97,0.00,,,0.38,,2013-05-30 10:32:00,
2013-05-30 10:42:00,39.0,38.0,-100.00,SSW,206,2.0,4.0,97,0.00,,,0.38,,2013-05-30 10:42:00,
2013-05-30 10:52:00,39.0,38.0,-100.00,SSW,206,2.0,4.0,97,0.00,,,0.38,,2013-05-30 10:52:00,
2013-05-30 11:12:00,38.0,37.0,-100.00,SW,217,1.0,2.0,97,0.00,,,0.38,,2013-05-30 11:12:00,
2013-05-30 11:21:00,38.0,37.0,-100.00,SW,217,1.0,2.0,97,0.00,,,0.38,,2013-05-30 11:21:00,
2013-05-30 11:32:00,38.0,37.0,-100.00,SW,217,1.0,2.0,97,0.00,,,0.38,,2013-05-30 11:32:00,
2013-05-30 11:42:00,38.0,37.0,-100.00,SW,217,1.0,2.0,97,0.00,,,0.38,,2013-05-30 11:42:00,
2013-05-30 11:52:00,38.0,37.0,-100.00,SW,217,1.0,2.0,97,0.00,,,0.38,,2013-05-30 11:52:00,
2013-05-30 12:11:00,38.0,38.0,-100.00,North,10,1.0,2.0,98,0.00,,,0.38,,2013-05-30 12:11:00,
2013-05-30 12:22:00,38.0,38.0,-100.00,North,10,1.0,2.0,98,0.00,,,0.38,,2013-05-30 12:22:00,
2013-05-30 12:32:00,38.0,38.0,-100.00,North,10,1.0,2.0,98,0.00,,,0.38,,2013-05-30 12:32:00,
2013-05-30 12:42:00,38.0,38.0,-100.00,North,10,1.0,2.0,98,0.00,,,0.38,,2013-05-30 12:42:00,
2013-05-30 12:52:00,38.0,38.0,-100.00,North,10,1.0,2.0,98,0.00,,,0.38,,2013-05-30 12:52:00,
2013-05-30 13:11:00,38.0,36.0,-100.00,WSW,249,4.0,6.0,94,0.00,,,0.38,,2013-05-30 13:11:00,
2013-05-30 13:22:00,38.0,36.0,-100.00,WSW,249,4.0,6.0,94,0.00,,,0.38,,2013-05-30 13:22:00,
2013-05-30 13:32:00,38.0,36.0,-100.00,WSW,249,4.0,6.0,94,0.00,,,0.38,,2013-05-30 13:32:00,
2013-05-30 13:41:00,38.0,36.0,-100.00,WSW,249,4.0,6.0,94,0.00,,,0.38,,2013-05-30 13:41:00,
2013-05-30 13:52:00,38.0,36.0,-100.00,WSW,249,4.0,6.0,94,0.00,,,0.38,,2013-05-30 13:52:00,
2013-05-30 14:11:00,40.0,36.0,-100.00,SW,226,6.0,10.0,88,0.00,,,0.38,,2013-05-30 14:11:00,
2013-05-30 14:21:00,40.0,36.0,-100.00,SW,226,6.0,10.0,88,0.00,,,0.38,,2013-05-30 14:21:00,
2013-05-30 14:32:00,40.0,36.0,-100.00,SW,226,6.0,10.0,88,0.00,,,0.38,,2013-05-30 14:32:00,
2013-05-30 14:42:00,40.0,36.0,-100.00,SW,226,6.0,10.0,88,0.00,,,0.38,,2013-05-30 14:42:00,
2013-05-30 14:51:00,40.0,36.0,-100.00,SW,226,6.0,10.0,88,0.00,,,0.38,,2013-05-30 14:51:00,
2013-05-30 15:11:00,46.0,37.0,-100.00,West,271,5.0,12.0,70,0.00,,,0.38,,2013-05-30 15:11:00,
2013-05-30 15:22:00,46.0,37.0,-100.00,West,271,5.0,12.0,70,0.00,,,0.38,,2013-05-30 15:22:00,
2013-05-30 15:33:00,46.0,37.0,-100.00,West,271,5.0,12.0,70,0.00,,,0.38,,2013-05-30 15:33:00,
2013-05-30 15:42:00,46.0,37.0,-100.00,West,271,5.0,12.0,70,0.00,,,0.38,,2013-05-30 15:42:00,
2013-05-30 15:52:00,46.0,37.0,-100.00,West,271,5.0,12.0,70,0.00,,,0.38,,2013-05-30 15:52:00,
2013-05-30 16:12:00,46.0,35.0,-100.00,WSW,242,7.0,10.0,66,0.00,,,0.36,,2013-05-30 16:12:00,
2013-05-30 16:22:00,46.0,35.0,-100.00,WSW,242,7.0,10.0,66,0.00,,,0.36,,2013-05-30 16:22:00,
2013-05-30 16:33:00,46.0,35.0,-100.00,WSW,242,7.0,10.0,66,0.00,,,0.36,,2013-05-30 16:33:00,
2013-05-30 16:42:00,46.0,35.0,-100.00,WSW,242,7.0,10.0,66,0.00,,,0.36,,2013-05-30 16:42:00,
2013-05-30 16:52:00,46.0,35.0,-100.00,WSW,242,7.0,10.0,66,0.00,,,0.36,,2013-05-30 16:52:00,
2013-05-30 17:11:00,46.0,32.0,-100.00,West,270,5.0,9.0,58,0.00,,,0.35,,2013-05-30 17:11:00,
2013-05-30 17:22:00,46.0,32.0,-100.00,West,270,5.0,9.0,58,0.00,,,0.35,,2013-05-30 17:22:00,
2013-05-30 17:32:00,46.0,32.0,-100.00,West,270,5.0,9.0,58,0.00,,,0.35,,2013-05-30 17:32:00,
2013-05-30 17:42:00,46.0,32.0,-100.00,West,270,5.0,9.0,58,0.00,,,0.35,,2013-05-30 17:42:00,
2013-05-30 17:52:00,46.0,32.0,-100.00,West,270,5.0,9.0,58,0.00,,,0.35,,2013-05-30 17:52:00,
2013-05-30 18:11:00,50.0,34.0,-100.00,WSW,250,5.0,9.0,53,0.00,,,0.35,,2013-05-30 18:11:00,
2013-05-30 18:21:00,50.0,34.0,-100.00,WSW,250,5.0,9.0,53,0.00,,,0.35,,2013-05-30 18:21:00,
2013-05-30 18:32:00,50.0,34.0,-100.00,WSW,250,5.0,9.0,53,0.00,,,0.35,,2013-05-30 18:32:00,
2013-05-30 18:42:00,50.0,34.0,-100.00,WSW,250,5.0,9.0,53,0.00,,,0.35,,2013-05-30 18:42:00,
2013-05-30 18:51:00,50.0,34.0,-100.00,WSW,250,5.0,9.0,53,0.00,,,0.35,,2013-05-30 18:51:00,
2013-05-30 19:11:00,50.0,31.0,-100.00,WNW,299,6.0,10.0,48,0.00,,,0.24,,2013-05-30 19:11:00,
2013-05-30 19:22:00,50.0,31.0,-100.00,WNW,299,6.0,10.0,48,0.00,,,0.24,,2013-05-30 19:22:00,
2013-05-30 19:32:00,50.0,31.0,-100.00,WNW,299,6.0,10.0,48,0.00,,,0.24,,2013-05-30 19:32:00,
2013-05-30 19:42:00,50.0,31.0,-100.00,WNW,299,6.0,10.0,48,0.00,,,0.24,,2013-05-30 19:42:00,
2013-05-30 19:52:00,50.0,31.0,-100.00,WNW,299,6.0,10.0,48,0.00,,,0.24,,2013-05-30 19:52:00,
2013-05-30 20:11:00,49.0,28.0,-100.00,West,276,8.0,13.0,44,0.00,,,0.22,,2013-05-30 20:11:00,
2013-05-30 20:22:00,49.0,28.0,-100.00,West,276,8.0,13.0,44,0.00,,,0.22,,2013-05-30 20:22:00,
2013-05-30 20:33:00,49.0,28.0,-100.00,West,276,8.0,13.0,44,0.00,,,0.22,,2013-05-30 20:33:00,
2013-05-30 20:41:00,49.0,28.0,-100.00,West,276,8.0,13.0,44,0.00,,,0.22,,2013-05-30 20:41:00,
2013-05-30 20:51:00,49.0,28.0,-100.00,West,276,8.0,13.0,44,0.00,,,0.22,,2013-05-30 20:51:00,
2013-05-30 21:11:00,53.0,30.0,-100.00,NW,324,4.0,10.0,40,0.00,,,0.20,,2013-05-30 21:11:00,
2013-05-30 21:22:00,53.0,30.0,-100.00,NW,324,4.0,10.0,40,0.00,,,0.20,,2013-05-30 21:22:00,
2013-05-30 21:33:00,53.0,30.0,-100.00,NW,324,4.0,10.0,40,0.00,,,0.20,,2013-05-30 21:33:00,
2013-05-30 21:42:00,53.0,30.0,-100.00,NW,324,4.0,10.0,40,0.00,,,0.20,,2013-05-30 21:42:00,
2013-05-30 21:53:00,53.0,30.0,-100.00,NW,324,4.0,10.0,40,0.00,,,0.20,,2013-05-30 21:53:00,
2013-05-30 22:12:00,52.0,30.0,-100.00,WSW,254,8.0,17.0,42,0.00,,,0.19,,2013-05-30 22:12:00,
2013-05-30 22:22:00,52.0,30.0,-100.00,WSW,254,8.0,17.0,42,0.00,,,0.19,,2013-05-30 22:22:00,
2013-05-30 22:33:00,52.0,30.0,-100.00,WSW,254,8.0,17.0,42,0.00,,,0.19,,2013-05-30 22:33:00,
2013-05-30 22:42:00,52.0,30.0,-100.00,WSW,254,8.0,17.0,42,0.00,,,0.19,,2013-05-30 22:42:00,
2013-05-30 22:52:00,52.0,30.0,-100.00,WSW,254,8.0,17.0,42,0.00,,,0.19,,2013-05-30 22:52:00,
2013-05-30 23:11:00,54.0,25.0,-100.00,West,276,6.0,13.0,32,0.00,,,0.19,,2013-05-30 23:11:00,
2013-05-30 23:22:00,54.0,25.0,-100.00,West,276,6.0,13.0,32,0.00,,,0.19,,2013-05-30 23:22:00,